createdAt,value
2019-02-27T00:02:28.193Z,4.90
2019-02-27T00:04:59.442Z,4.90
2019-02-27T00:07:30.646Z,4.90
2019-02-27T00:10:05.834Z,4.90
2019-02-27T00:12:35.697Z,4.90
2019-02-27T00:15:07.144Z,4.90
2019-02-27T00:17:38.884Z,5.00
2019-02-27T00:20:10.242Z,5.00
2019-02-27T00:22:41.279Z,4.90
2019-02-27T00:25:12.288Z,4.90
2019-02-27T00:27:48.877Z,4.90
2019-02-27T00:30:17.022Z,4.90
2019-02-27T00:32:51.262Z,5.00
2019-02-27T00:35:21.930Z,5.00
2019-02-27T00:37:52.808Z,5.00
2019-02-27T00:40:23.770Z,5.00
2019-02-27T00:42:54.987Z,5.00
2019-02-27T00:45:26.142Z,4.90
2019-02-27T00:47:57.295Z,4.90
2019-02-27T00:50:28.337Z,4.90
2019-02-27T00:52:59.439Z,4.90
2019-02-27T00:55:30.453Z,4.90
2019-02-27T00:58:01.557Z,4.80
2019-02-27T01:00:32.772Z,4.90
2019-02-27T01:03:03.693Z,4.90
2019-02-27T01:05:34.623Z,4.90
2019-02-27T01:08:05.764Z,4.90
2019-02-27T01:10:36.640Z,4.90
2019-02-27T01:13:07.954Z,4.90
2019-02-27T01:15:38.977Z,4.90
2019-02-27T01:18:11.068Z,5.00
2019-02-27T01:20:45.729Z,5.00
2019-02-27T01:23:15.003Z,5.00
2019-02-27T01:25:46.040Z,5.00
2019-02-27T01:28:17.444Z,5.00
2019-02-27T01:30:48.341Z,5.00
2019-02-27T01:33:19.337Z,5.00
2019-02-27T01:35:52.125Z,5.00
2019-02-27T01:38:23.400Z,5.00
2019-02-27T01:40:55.909Z,5.00
2019-02-27T01:43:27.186Z,5.00
2019-02-27T01:45:58.080Z,4.90
2019-02-27T01:48:28.969Z,4.90
2019-02-27T01:50:59.932Z,5.00
2019-02-27T01:53:30.943Z,5.00
2019-02-27T01:56:01.791Z,5.00
2019-02-27T01:58:32.662Z,5.00
2019-02-27T02:01:05.552Z,4.90
2019-02-27T02:03:36.606Z,4.90
2019-02-27T02:06:08.136Z,4.90
2019-02-27T02:08:39.071Z,5.00
2019-02-27T02:11:10.233Z,5.10
2019-02-27T02:14:21.623Z,5.00
2019-02-27T02:17:14.456Z,5.10
2019-02-27T02:20:21.780Z,5.10
2019-02-27T02:23:33.993Z,5.10
2019-02-27T02:26:35.049Z,5.10
2019-02-27T02:29:33.913Z,5.10
2019-02-27T02:32:17.136Z,5.10
2019-02-27T02:35:06.994Z,5.10
2019-02-27T02:38:14.967Z,5.10
2019-02-27T02:41:13.468Z,5.10
2019-02-27T02:44:46.393Z,5.10
2019-02-27T02:47:35.900Z,5.10
2019-02-27T02:50:28.777Z,5.20
2019-02-27T02:53:27.418Z,5.20
2019-02-27T02:56:36.562Z,5.10
2019-02-27T02:59:43.014Z,5.00
2019-02-27T03:02:51.011Z,5.00
2019-02-27T03:05:58.584Z,5.00
2019-02-27T03:08:55.288Z,5.00
2019-02-27T03:11:56.414Z,5.00
2019-02-27T03:14:43.236Z,5.00
2019-02-27T03:17:54.770Z,5.10
2019-02-27T03:20:54.144Z,5.10
2019-02-27T03:24:08.926Z,5.10
2019-02-27T03:27:16.705Z,5.10
2019-02-27T03:30:10.145Z,5.10
2019-02-27T03:33:04.495Z,5.10
2019-02-27T03:36:27.045Z,5.00
2019-02-27T03:39:21.299Z,5.00
2019-02-27T03:42:37.368Z,5.00
2019-02-27T03:45:50.325Z,4.90
2019-02-27T03:48:50.180Z,4.90
2019-02-27T03:51:47.629Z,4.80
2019-02-27T03:54:41.516Z,4.80
2019-02-27T03:57:46.490Z,4.70
2019-02-27T04:00:33.574Z,4.80
2019-02-27T04:03:32.723Z,4.80
2019-02-27T04:06:33.293Z,4.80
2019-02-27T04:09:07.018Z,4.80
2019-02-27T04:11:41.513Z,4.80
2019-02-27T04:14:33.054Z,4.80
2019-02-27T04:17:07.363Z,4.70
2019-02-27T04:19:40.207Z,4.70
2019-02-27T04:22:12.005Z,4.70
2019-02-27T04:24:42.915Z,4.60
2019-02-27T04:27:20.022Z,4.70
2019-02-27T04:29:46.173Z,4.70
2019-02-27T04:32:16.993Z,4.70
2019-02-27T04:34:47.808Z,4.70
2019-02-27T04:37:20.419Z,4.80
2019-02-27T04:39:51.082Z,4.70
2019-02-27T04:42:25.367Z,4.60
2019-02-27T04:44:54.476Z,4.60
2019-02-27T04:47:28.697Z,4.60
2019-02-27T04:49:57.784Z,4.50
2019-02-27T04:52:28.730Z,4.50
2019-02-27T04:54:59.610Z,4.60
2019-02-27T04:57:33.731Z,4.60
2019-02-27T05:00:05.413Z,4.60
2019-02-27T05:02:36.575Z,4.60
2019-02-27T05:05:08.587Z,4.50
2019-02-27T05:07:40.117Z,4.50
2019-02-27T05:10:11.107Z,4.50
2019-02-27T05:12:42.003Z,4.60
2019-02-27T05:15:14.556Z,4.70
2019-02-27T05:17:45.527Z,4.70
2019-02-27T05:20:16.365Z,4.70
2019-02-27T05:22:47.242Z,4.60
2019-02-27T05:25:18.124Z,4.60
2019-02-27T05:27:49.005Z,4.60
2019-02-27T05:30:19.941Z,4.60
2019-02-27T05:32:50.770Z,4.60
2019-02-27T05:35:24.221Z,4.60
2019-02-27T05:37:54.049Z,4.60
2019-02-27T05:40:26.034Z,4.60
2019-02-27T05:42:57.480Z,4.70
2019-02-27T05:45:31.159Z,4.60
2019-02-27T05:48:01.857Z,4.50
2019-02-27T05:50:34.241Z,4.50
2019-02-27T05:53:05.329Z,4.50
2019-02-27T05:55:39.057Z,4.50
2019-02-27T05:58:08.651Z,4.50
2019-02-27T06:00:39.586Z,4.60
2019-02-27T06:03:10.444Z,4.70
2019-02-27T06:05:49.378Z,4.50
2019-02-27T06:08:13.777Z,4.50
2019-02-27T06:10:44.616Z,4.50
2019-02-27T06:13:15.450Z,4.40
2019-02-27T06:15:46.285Z,4.50
2019-02-27T06:18:17.137Z,4.60
2019-02-27T06:20:47.981Z,4.60
2019-02-27T06:23:18.796Z,4.60
2019-02-27T06:25:49.640Z,4.60
2019-02-27T06:28:20.486Z,4.70
2019-02-27T06:30:51.315Z,4.70
2019-02-27T06:33:22.143Z,4.70
2019-02-27T06:35:53.060Z,4.80
2019-02-27T06:38:25.360Z,4.80
2019-02-27T06:40:59.330Z,4.90
2019-02-27T06:43:29.962Z,4.90
2019-02-27T06:46:00.918Z,4.90
2019-02-27T06:48:31.754Z,4.90
2019-02-27T06:51:02.604Z,4.90
2019-02-27T06:53:33.478Z,5.00
2019-02-27T06:56:04.329Z,5.00
2019-02-27T06:58:35.189Z,5.00
2019-02-27T07:01:09.118Z,5.10
2019-02-27T07:03:38.896Z,5.20
2019-02-27T07:06:09.744Z,5.20
2019-02-27T07:08:40.576Z,5.20
2019-02-27T07:11:11.433Z,5.10
2019-02-27T07:13:42.274Z,5.00
2019-02-27T07:16:13.108Z,5.10
2019-02-27T07:18:43.932Z,5.00
2019-02-27T07:21:14.776Z,5.00
2019-02-27T07:23:45.874Z,5.10
2019-02-27T07:26:16.742Z,5.10
2019-02-27T07:28:47.596Z,5.00
2019-02-27T07:31:18.574Z,5.00
2019-02-27T07:33:49.385Z,4.90
2019-02-27T07:36:20.343Z,4.90
2019-02-27T07:38:54.387Z,4.90
2019-02-27T07:41:24.642Z,4.90
2019-02-27T07:43:55.454Z,5.00
2019-02-27T07:46:26.324Z,5.10
2019-02-27T07:48:57.345Z,5.00
2019-02-27T07:51:29.187Z,5.10
2019-02-27T07:54:00.016Z,5.20
2019-02-27T07:56:30.852Z,5.10
2019-02-27T07:59:01.715Z,5.20
2019-02-27T08:01:32.580Z,5.30
2019-02-27T08:04:03.475Z,5.50
2019-02-27T08:06:35.043Z,5.60
2019-02-27T08:09:07.639Z,5.70
2019-02-27T08:11:40.040Z,5.70
2019-02-27T08:14:12.819Z,5.80
2019-02-27T08:16:44.717Z,6.00
2019-02-27T08:19:15.566Z,6.20
2019-02-27T08:21:46.412Z,6.40
2019-02-27T08:24:17.256Z,6.60
2019-02-27T08:26:49.129Z,6.80
2019-02-27T08:29:20.072Z,7.00
2019-02-27T08:31:50.917Z,7.00
2019-02-27T08:34:21.778Z,7.30
2019-02-27T08:36:53.664Z,7.60
2019-02-27T08:39:24.520Z,7.70
2019-02-27T08:41:55.389Z,7.80
2019-02-27T08:44:26.209Z,7.80
2019-02-27T08:46:57.060Z,7.80
2019-02-27T08:49:27.891Z,7.70
2019-02-27T08:51:58.832Z,7.60
2019-02-27T08:54:32.311Z,7.80
2019-02-27T08:57:02.264Z,8.00
2019-02-27T08:59:33.106Z,8.10
2019-02-27T09:02:04.158Z,8.10
2019-02-27T09:04:35.005Z,8.10
2019-02-27T09:07:05.957Z,8.00
2019-02-27T09:09:36.797Z,7.90
2019-02-27T09:12:07.636Z,7.90
2019-02-27T09:14:38.482Z,8.00
2019-02-27T09:17:09.342Z,7.80
2019-02-27T09:19:44.978Z,7.90
2019-02-27T09:22:12.674Z,8.00
2019-02-27T09:24:43.502Z,8.20
2019-02-27T09:27:14.354Z,8.40
2019-02-27T09:29:45.188Z,8.40
2019-02-27T09:32:16.045Z,8.40
2019-02-27T09:34:46.881Z,8.50
2019-02-27T09:37:17.884Z,8.50
2019-02-27T09:39:48.724Z,8.40
2019-02-27T09:42:19.796Z,8.40
2019-02-27T09:44:50.823Z,8.60
2019-02-27T09:47:23.148Z,8.60
2019-02-27T09:49:54.145Z,8.60
2019-02-27T09:52:25.052Z,8.60
2019-02-27T09:54:55.892Z,8.60
2019-02-27T09:57:27.173Z,8.60
2019-02-27T09:59:58.185Z,8.60
2019-02-27T10:02:29.072Z,8.70
2019-02-27T10:05:03.004Z,8.70
2019-02-27T10:07:32.360Z,8.70
2019-02-27T10:10:03.164Z,8.70
2019-02-27T10:12:34.405Z,8.70
2019-02-27T10:15:05.378Z,8.70
2019-02-27T10:17:36.247Z,8.70
2019-02-27T10:20:07.600Z,8.60
2019-02-27T10:22:38.483Z,8.60
2019-02-27T10:25:09.604Z,8.80
2019-02-27T10:27:40.412Z,9.00
2019-02-27T10:30:11.857Z,9.10
2019-02-27T10:32:42.872Z,9.10
2019-02-27T10:35:15.162Z,9.00
2019-02-27T10:37:50.433Z,9.00
2019-02-27T10:40:19.266Z,9.00
2019-02-27T10:42:51.273Z,8.90
2019-02-27T10:45:22.296Z,8.80
2019-02-27T10:47:53.268Z,8.80
2019-02-27T10:50:24.133Z,8.90
2019-02-27T10:52:54.969Z,8.90
2019-02-27T10:55:26.963Z,9.00
2019-02-27T10:57:58.088Z,9.00
2019-02-27T11:00:30.079Z,8.90
2019-02-27T11:03:01.227Z,8.90
2019-02-27T11:05:33.524Z,8.90
2019-02-27T11:08:04.507Z,9.00
2019-02-27T11:10:35.678Z,9.10
2019-02-27T11:13:07.146Z,9.20
2019-02-27T11:15:41.078Z,9.20
2019-02-27T11:18:10.874Z,9.20
2019-02-27T11:20:41.764Z,9.30
2019-02-27T11:23:12.662Z,9.30
2019-02-27T11:25:43.530Z,9.30
2019-02-27T11:28:14.441Z,9.30
2019-02-27T11:30:45.309Z,9.30
2019-02-27T11:33:25.068Z,9.40
2019-02-27T11:35:49.761Z,9.40
2019-02-27T11:38:24.481Z,9.40
2019-02-27T11:40:53.204Z,9.40
2019-02-27T11:43:24.168Z,9.50
2019-02-27T11:45:57.528Z,9.50
2019-02-27T11:48:27.641Z,9.60
2019-02-27T11:50:58.581Z,9.60
2019-02-27T11:53:29.478Z,9.60
2019-02-27T11:56:00.481Z,9.70
2019-02-27T11:58:31.330Z,9.70
2019-02-27T12:01:02.364Z,9.60
2019-02-27T12:03:33.346Z,9.60
2019-02-27T12:06:05.324Z,9.60
2019-02-27T12:08:36.715Z,9.50
2019-02-27T12:11:09.698Z,9.40
2019-02-27T12:13:40.237Z,9.40
2019-02-27T12:16:11.209Z,9.30
2019-02-27T12:18:42.620Z,9.40
2019-02-27T12:21:13.493Z,9.40
2019-02-27T12:23:44.885Z,9.40
2019-02-27T12:26:15.820Z,9.40
2019-02-27T12:28:47.581Z,9.50
2019-02-27T12:31:18.577Z,9.50
2019-02-27T12:33:49.464Z,9.50
2019-02-27T12:36:20.336Z,9.60
2019-02-27T12:38:51.194Z,9.60
2019-02-27T12:41:22.042Z,9.60
2019-02-27T12:43:53.394Z,9.70
2019-02-27T12:46:24.412Z,9.70
2019-02-27T12:48:55.699Z,9.70
2019-02-27T12:51:26.573Z,9.70
2019-02-27T12:53:57.457Z,9.70
2019-02-27T12:56:28.393Z,9.60
2019-02-27T12:58:59.311Z,9.60
2019-02-27T13:01:30.205Z,9.60
2019-02-27T13:04:01.089Z,9.50
2019-02-27T13:06:34.305Z,9.50
2019-02-27T13:09:05.872Z,9.50
2019-02-27T13:11:39.104Z,9.40
2019-02-27T13:14:10.517Z,9.30
2019-02-27T13:16:41.308Z,9.20
2019-02-27T13:19:12.164Z,9.10
2019-02-27T13:21:43.075Z,9.00
2019-02-27T13:24:15.384Z,9.00
2019-02-27T13:26:46.336Z,8.90
2019-02-27T13:29:17.164Z,8.90
2019-02-27T13:31:51.429Z,8.90
2019-02-27T13:34:21.584Z,8.80
2019-02-27T13:36:52.428Z,8.80
2019-02-27T13:39:25.591Z,8.90
2019-02-27T13:41:55.742Z,8.90
2019-02-27T13:44:26.596Z,9.00
2019-02-27T13:46:57.620Z,9.00
2019-02-27T13:49:28.429Z,9.00
2019-02-27T13:51:59.240Z,9.00
2019-02-27T13:54:34.890Z,9.00
2019-02-27T13:57:02.545Z,9.00
2019-02-27T13:59:33.384Z,8.90
2019-02-27T14:02:04.886Z,8.80
2019-02-27T14:04:35.985Z,8.80
2019-02-27T14:07:06.988Z,8.70
2019-02-27T14:09:39.124Z,8.70
2019-02-27T14:12:10.312Z,8.70
2019-02-27T14:14:41.272Z,8.70
2019-02-27T14:17:12.120Z,8.70
2019-02-27T14:19:42.979Z,8.70
2019-02-27T14:22:13.837Z,8.70
2019-02-27T14:24:44.708Z,8.70
2019-02-27T14:27:15.642Z,8.60
2019-02-27T14:29:46.565Z,8.60
2019-02-27T14:32:17.973Z,8.60
2019-02-27T14:34:48.995Z,8.50
2019-02-27T14:37:20.337Z,8.50
2019-02-27T14:39:51.231Z,8.50
2019-02-27T14:42:23.154Z,8.50
2019-02-27T14:44:54.160Z,8.50
2019-02-27T14:47:25.002Z,8.50
2019-02-27T14:49:55.900Z,8.50
2019-02-27T14:52:26.805Z,8.50
2019-02-27T14:55:02.963Z,8.50
2019-02-27T14:57:30.184Z,8.40
2019-02-27T15:00:02.311Z,8.40
2019-02-27T15:02:33.727Z,8.40
2019-02-27T15:05:08.305Z,8.40
2019-02-27T15:07:37.471Z,8.40
2019-02-27T15:10:08.556Z,8.40
2019-02-27T15:12:39.407Z,8.30
2019-02-27T15:15:13.489Z,8.30
2019-02-27T15:17:44.448Z,8.30
2019-02-27T15:20:16.368Z,8.30
2019-02-27T15:22:47.243Z,8.30
2019-02-27T15:25:18.679Z,8.30
2019-02-27T15:27:49.612Z,8.30
2019-02-27T15:30:22.365Z,8.30
2019-02-27T15:32:54.151Z,8.30
2019-02-27T15:35:25.243Z,8.30
2019-02-27T15:37:56.488Z,8.30
2019-02-27T15:40:29.520Z,8.30
2019-02-27T15:43:00.397Z,8.20
2019-02-27T15:45:31.396Z,8.20
2019-02-27T15:48:06.414Z,8.20
2019-02-27T15:50:34.940Z,8.20
2019-02-27T15:53:06.071Z,8.20
2019-02-27T15:55:37.897Z,8.20
2019-02-27T15:58:08.928Z,8.20
2019-02-27T16:00:39.782Z,8.20
2019-02-27T16:03:11.965Z,8.20
2019-02-27T16:05:43.107Z,8.10
2019-02-27T16:08:15.321Z,8.10
2019-02-27T16:10:54.525Z,8.10
2019-02-27T16:13:18.880Z,8.10
2019-02-27T16:15:49.746Z,8.10
2019-02-27T16:18:20.596Z,8.10
2019-02-27T16:20:51.549Z,8.10
2019-02-27T16:23:22.496Z,8.10
2019-02-27T16:25:55.877Z,8.00
2019-02-27T16:28:26.269Z,8.00
2019-02-27T16:30:57.192Z,8.00
2019-02-27T16:33:29.212Z,8.00
2019-02-27T16:36:00.077Z,7.90
2019-02-27T16:38:31.606Z,8.00
2019-02-27T16:41:03.671Z,7.90
2019-02-27T16:43:34.550Z,7.90
2019-02-27T16:46:08.649Z,7.90
2019-02-27T16:48:39.180Z,7.90
2019-02-27T16:51:10.108Z,7.80
2019-02-27T16:53:40.985Z,7.80
2019-02-27T16:56:12.881Z,7.80
2019-02-27T16:58:44.097Z,7.80
2019-02-27T17:01:15.020Z,7.80
2019-02-27T17:03:56.394Z,7.80
2019-02-27T17:06:18.544Z,7.70
2019-02-27T17:08:49.471Z,7.80
2019-02-27T17:11:20.401Z,7.70
2019-02-27T17:13:51.432Z,7.70
2019-02-27T17:16:22.409Z,7.70
2019-02-27T17:18:53.392Z,7.70
2019-02-27T17:21:26.046Z,7.60
2019-02-27T17:23:57.017Z,7.60
2019-02-27T17:26:27.955Z,7.60
2019-02-27T17:28:58.818Z,7.60
2019-02-27T17:31:29.689Z,7.50
2019-02-27T17:34:00.529Z,7.50
2019-02-27T17:36:31.978Z,7.50
2019-02-27T17:39:04.214Z,7.60
2019-02-27T17:41:36.638Z,7.50
2019-02-27T17:44:07.628Z,7.50
2019-02-27T17:46:38.564Z,7.50
2019-02-27T17:49:09.444Z,7.50
2019-02-27T17:51:40.716Z,7.40
2019-02-27T17:54:11.695Z,7.50
2019-02-27T17:56:42.753Z,7.50
2019-02-27T17:59:14.243Z,7.50
2019-02-27T18:01:46.996Z,7.50
2019-02-27T18:04:18.069Z,7.50
2019-02-27T18:06:49.014Z,7.60
2019-02-27T18:09:19.938Z,7.60
2019-02-27T18:11:52.533Z,7.60
2019-02-27T18:14:24.930Z,7.60
2019-02-27T18:16:59.274Z,7.50
2019-02-27T18:19:29.127Z,7.50
2019-02-27T18:22:00.043Z,7.50
2019-02-27T18:24:34.121Z,7.50
2019-02-27T18:27:03.614Z,7.50
2019-02-27T18:29:34.613Z,7.50
2019-02-27T18:32:06.635Z,7.50
2019-02-27T18:34:37.892Z,7.50
2019-02-27T18:37:11.278Z,7.60
2019-02-27T18:39:42.148Z,7.50
2019-02-27T18:42:13.060Z,7.50
2019-02-27T18:44:43.965Z,7.50
2019-02-27T18:47:14.828Z,7.50
2019-02-27T18:49:49.004Z,7.50
2019-02-27T18:52:21.569Z,7.50
2019-02-27T18:54:54.682Z,7.50
2019-02-27T18:57:25.472Z,7.50
2019-02-27T19:00:01.492Z,7.50
2019-02-27T19:02:30.818Z,7.40
2019-02-27T19:05:01.738Z,7.30
2019-02-27T19:07:33.222Z,7.40
2019-02-27T19:10:06.758Z,7.40
2019-02-27T19:12:37.168Z,7.40
2019-02-27T19:15:11.410Z,7.40
2019-02-27T19:17:42.693Z,7.40
2019-02-27T19:20:14.973Z,7.30
2019-02-27T19:22:45.993Z,7.30
2019-02-27T19:25:16.891Z,7.30
2019-02-27T19:27:49.821Z,7.40
2019-02-27T19:30:21.352Z,7.40
2019-02-27T19:32:57.847Z,7.30
2019-02-27T19:35:25.351Z,7.30
2019-02-27T19:37:56.275Z,7.30
2019-02-27T19:40:29.943Z,7.30
2019-02-27T19:43:01.641Z,7.30
2019-02-27T19:45:35.760Z,7.20
2019-02-27T19:48:05.510Z,7.20
2019-02-27T19:50:36.555Z,7.20
2019-02-27T19:53:07.544Z,7.20
2019-02-27T19:55:38.645Z,7.10
2019-02-27T19:58:09.828Z,7.20
2019-02-27T20:00:47.896Z,7.20
2019-02-27T20:03:29.712Z,7.10
2019-02-27T20:06:01.754Z,7.00
2019-02-27T20:08:32.990Z,7.00
2019-02-27T20:11:06.659Z,7.10
2019-02-27T20:13:37.991Z,7.10
2019-02-27T20:16:09.178Z,7.10
2019-02-27T20:18:40.562Z,7.10
2019-02-27T20:21:13.757Z,7.10
2019-02-27T20:23:44.609Z,7.00
2019-02-27T20:26:20.106Z,7.00
2019-02-27T20:28:48.186Z,6.90
2019-02-27T20:31:20.991Z,7.00
2019-02-27T20:33:51.665Z,6.90
2019-02-27T20:36:22.515Z,7.00
2019-02-27T20:38:53.641Z,7.00
2019-02-27T20:41:24.506Z,6.90
2019-02-27T20:43:55.483Z,7.00
2019-02-27T20:46:26.470Z,6.90
2019-02-27T20:48:57.344Z,6.90
2019-02-27T20:51:28.288Z,7.00
2019-02-27T20:53:59.156Z,7.00
2019-02-27T20:56:30.085Z,6.90
2019-02-27T20:59:02.087Z,6.90
2019-02-27T21:01:33.062Z,6.80
2019-02-27T21:04:03.920Z,6.70
2019-02-27T21:06:34.788Z,6.70
2019-02-27T21:09:11.841Z,6.60
2019-02-27T21:11:40.549Z,6.60
2019-02-27T21:14:11.475Z,6.60
2019-02-27T21:16:45.522Z,6.50
2019-02-27T21:19:15.504Z,6.50
2019-02-27T21:21:46.320Z,6.40
2019-02-27T21:24:17.165Z,6.50
2019-02-27T21:26:49.198Z,6.50
2019-02-27T21:29:21.696Z,6.50
2019-02-27T21:31:53.740Z,6.50
2019-02-27T21:34:24.773Z,6.50
2019-02-27T21:36:55.684Z,6.50
2019-02-27T21:39:28.934Z,6.60
2019-02-27T21:41:59.852Z,6.70
2019-02-27T21:44:30.861Z,6.70
2019-02-27T21:47:01.807Z,6.70
2019-02-27T21:49:32.822Z,6.80
2019-02-27T21:52:03.772Z,6.80
2019-02-27T21:54:38.430Z,6.90
2019-02-27T21:57:07.409Z,6.80
2019-02-27T21:59:39.760Z,6.80
2019-02-27T22:02:11.411Z,6.80
2019-02-27T22:04:44.034Z,6.80
2019-02-27T22:07:15.179Z,6.90
2019-02-27T22:09:46.446Z,6.80
2019-02-27T22:12:17.470Z,6.90
2019-02-27T22:14:48.758Z,6.80
2019-02-27T22:17:20.504Z,6.80
2019-02-27T22:19:53.805Z,6.70
2019-02-27T22:22:25.213Z,6.80
2019-02-27T22:24:56.366Z,6.80
2019-02-27T22:27:27.328Z,6.80
2019-02-27T22:29:59.738Z,6.90
2019-02-27T22:32:31.865Z,6.90
2019-02-27T22:35:04.015Z,6.90
2019-02-27T22:37:34.988Z,6.90
2019-02-27T22:40:07.497Z,6.90
2019-02-27T22:42:38.552Z,6.90
2019-02-27T22:45:10.895Z,6.90
2019-02-27T22:47:42.025Z,6.80
2019-02-27T22:50:14.412Z,6.90
2019-02-27T22:52:45.317Z,6.80
2019-02-27T22:55:16.178Z,6.80
2019-02-27T22:57:47.130Z,6.80
2019-02-27T23:01:07.623Z,6.80
2019-02-27T23:03:42.763Z,6.70
2019-02-27T23:06:13.699Z,6.70
2019-02-27T23:08:44.811Z,6.80
2019-02-27T23:11:15.773Z,6.80
2019-02-27T23:13:48.406Z,6.80
2019-02-27T23:16:20.767Z,6.70
2019-02-27T23:18:51.705Z,6.80
2019-02-27T23:21:22.657Z,6.80
2019-02-27T23:23:53.620Z,6.80
2019-02-27T23:26:24.505Z,6.80
2019-02-27T23:28:55.469Z,6.80
2019-02-27T23:31:26.380Z,6.80
2019-02-27T23:33:57.249Z,6.80
2019-02-27T23:36:28.113Z,6.70
2019-02-27T23:38:59.085Z,6.70
2019-02-27T23:41:31.303Z,6.70
2019-02-27T23:44:02.183Z,6.70
2019-02-27T23:46:33.850Z,6.70
2019-02-27T23:49:06.519Z,6.60
2019-02-27T23:51:37.564Z,6.70
2019-02-27T23:54:08.696Z,6.70
2019-02-27T23:56:39.620Z,6.70
2019-02-27T23:59:10.502Z,6.70
